Time;durP1;ratioP1;P1;durP2;ratioP2;P2;SDS_P1;SDS_P2;PMS_P1;PMS_P2;Temp;Humidity;BMP_temperature;BMP_pressure;BME280_temperature;BME280_humidity;BME280_pressure;Samples;Min_cycle;Max_cycle;Signal;HPM_P1;HPM_P2
2022/10/23 00:01:27;;;;;;;5.07;3.20;;;13.90;99.90;;;;;;5052435;28;20155;-70
2022/10/23 00:04:05;;;;;;;7.40;3.40;;;13.90;99.90;;;;;;5051983;28;20439;-68
2022/10/23 00:06:32;;;;;;;5.70;3.30;;;13.90;99.90;;;;;;5051780;28;20435;-69
2022/10/23 00:08:58;;;;;;;9.40;3.50;;;13.90;99.90;;;;;;5051996;28;20401;-70
2022/10/23 00:11:27;;;;;;;3.30;2.93;;;13.90;99.90;;;;;;5049906;28;20573;-69
2022/10/23 00:13:56;;;;;;;8.50;3.90;;;13.80;99.90;;;;;;5051618;28;20912;-69
2022/10/23 00:16:21;;;;;;;7.40;4.10;;;13.80;99.90;;;;;;5051555;28;20513;-68
2022/10/23 00:18:47;;;;;;;6.30;3.90;;;13.70;99.90;;;;;;5051743;28;20529;-68
2022/10/23 00:21:14;;;;;;;8.73;3.40;;;13.70;99.90;;;;;;5051736;28;20177;-69
2022/10/23 00:23:40;;;;;;;7.37;3.40;;;13.70;99.90;;;;;;5051453;28;20186;-68
2022/10/23 00:26:07;;;;;;;5.67;3.13;;;13.80;99.90;;;;;;5050941;28;20916;-69
2022/10/23 00:28:33;;;;;;;5.40;4.10;;;13.90;99.90;;;;;;5051419;28;20442;-69
2022/10/23 00:31:04;;;;;;;7.03;3.27;;;13.80;99.90;;;;;;5051513;28;20518;-68
2022/10/23 00:33:30;;;;;;;5.77;3.53;;;13.80;99.90;;;;;;5051891;28;20464;-69
2022/10/23 00:35:56;;;;;;;5.90;3.20;;;13.50;99.90;;;;;;5051764;28;20739;-68
2022/10/23 00:38:22;;;;;;;3.77;3.47;;;13.60;99.90;;;;;;5051351;28;20422;-69
2022/10/23 00:40:47;;;;;;;7.73;4.20;;;13.60;99.90;;;;;;5050762;28;20182;-69
2022/10/23 00:43:22;;;;;;;8.67;3.63;;;13.60;99.90;;;;;;5051247;28;20397;-68
2022/10/23 00:45:48;;;;;;;5.20;4.00;;;13.60;99.90;;;;;;5051564;28;20603;-68
2022/10/23 00:48:14;;;;;;;8.70;3.17;;;13.60;99.90;;;;;;5048826;28;20445;-69
2022/10/23 00:50:41;;;;;;;7.63;3.30;;;13.50;99.90;;;;;;5041550;28;20330;-68
2022/10/23 00:53:08;;;;;;;7.00;3.80;;;13.50;99.90;;;;;;5051554;28;20408;-68
2022/10/23 00:55:37;;;;;;;6.07;3.13;;;13.50;99.90;;;;;;5051224;28;20411;-68
2022/10/23 00:58:03;;;;;;;4.43;3.70;;;13.50;99.90;;;;;;5050907;28;20424;-68
2022/10/23 01:00:40;;;;;;;7.80;3.70;;;13.50;99.90;;;;;;5051447;28;20775;-68
2022/10/23 01:03:06;;;;;;;6.37;3.70;;;13.50;99.90;;;;;;5051200;28;20476;-68
2022/10/23 01:05:40;;;;;;;7.73;3.23;;;13.50;99.90;;;;;;5051402;28;20899;-68
2022/10/23 01:08:14;;;;;;;14.23;5.00;;;13.60;99.90;;;;;;5051154;28;20438;-69
2022/10/23 01:10:46;;;;;;;10.10;4.13;;;13.50;99.90;;;;;;5050287;28;20429;-69
2022/10/23 01:13:20;;;;;;;7.13;3.63;;;13.50;99.90;;;;;;5051503;28;20408;-68
2022/10/23 01:15:58;;;;;;;4.77;3.50;;;13.50;99.90;;;;;;5051325;28;20423;-68
2022/10/23 01:18:37;;;;;;;6.07;3.90;;;13.50;99.90;;;;;;5048555;28;20460;-69
2022/10/23 01:21:10;;;;;;;6.30;3.57;;;13.50;99.90;;;;;;5048441;28;20767;-69
2022/10/23 01:23:59;;;;;;;9.80;3.80;;;13.50;99.90;;;;;;5047765;28;20955;-69
2022/10/23 01:26:43;;;;;;;4.57;3.57;;;13.50;99.90;;;;;;5034680;28;20418;-69
2022/10/23 01:29:18;;;;;;;4.73;3.07;;;13.50;99.90;;;;;;5045447;28;20549;-69
2022/10/23 01:31:55;;;;;;;3.47;2.90;;;13.40;99.90;;;;;;5055219;28;20419;-69
2022/10/23 01:34:42;;;;;;;5.93;3.90;;;13.40;99.90;;;;;;5054962;28;20755;-69
2022/10/23 01:37:12;;;;;;;6.10;4.40;;;13.40;99.90;;;;;;5055199;28;20427;-70
2022/10/23 01:39:44;;;;;;;11.17;3.80;;;13.40;99.90;;;;;;5055107;28;20434;-69
2022/10/23 01:42:12;;;;;;;8.13;3.30;;;13.40;99.90;;;;;;5054233;28;20905;-69
2022/10/23 01:44:44;;;;;;;6.27;4.27;;;13.40;99.90;;;;;;5054560;28;20443;-69
2022/10/23 01:47:12;;;;;;;6.90;4.53;;;13.40;99.90;;;;;;5054833;28;20477;-69
2022/10/23 01:49:41;;;;;;;5.27;3.30;;;13.40;99.90;;;;;;5054549;28;20405;-69
2022/10/23 01:52:10;;;;;;;11.30;4.47;;;13.30;99.90;;;;;;5054520;28;20401;-70
2022/10/23 01:54:41;;;;;;;7.77;3.63;;;13.30;99.90;;;;;;5054805;28;20435;-69
2022/10/23 01:57:11;;;;;;;7.60;3.90;;;13.30;99.90;;;;;;5054119;28;20417;-70
2022/10/23 01:59:43;;;;;;;7.73;3.63;;;13.30;99.90;;;;;;5054468;28;20762;-70
2022/10/23 02:02:10;;;;;;;3.67;3.03;;;13.30;99.90;;;;;;5055215;28;20407;-69
2022/10/23 02:04:40;;;;;;;7.60;3.60;;;13.20;99.90;;;;;;5054289;28;20449;-69
2022/10/23 02:07:06;;;;;;;4.33;3.27;;;13.20;99.90;;;;;;5036329;28;20846;-69
2022/10/23 02:09:32;;;;;;;4.27;3.87;;;13.30;99.90;;;;;;5054185;28;20440;-69
2022/10/23 02:12:06;;;;;;;8.80;4.33;;;13.20;99.90;;;;;;5052501;28;20429;-70
2022/10/23 02:15:06;;;;;;;5.43;3.70;;;13.10;99.90;;;;;;5054353;28;20608;-69
2022/10/23 02:17:50;;;;;;;7.50;3.90;;;13.10;99.90;;;;;;5053682;28;20434;-69
2022/10/23 02:20:25;;;;;;;7.57;3.50;;;13.10;99.90;;;;;;5053407;28;20432;-69
2022/10/23 02:23:11;;;;;;;5.23;3.43;;;13.10;99.90;;;;;;5054098;28;20428;-69
2022/10/23 02:25:49;;;;;;;3.10;2.67;;;13.20;99.90;;;;;;5053971;28;20469;-70
2022/10/23 02:28:18;;;;;;;6.37;3.40;;;13.10;99.90;;;;;;5053258;28;20418;-69
2022/10/23 02:30:47;;;;;;;7.40;3.00;;;13.10;99.90;;;;;;5052797;28;20410;-69
2022/10/23 02:33:13;;;;;;;7.53;3.40;;;13.20;99.90;;;;;;5054076;28;20413;-69
2022/10/23 02:35:39;;;;;;;7.60;3.27;;;13.30;99.90;;;;;;5053582;28;20508;-69
2022/10/23 02:38:30;;;;;;;10.17;3.50;;;13.20;99.90;;;;;;5053557;28;20871;-69
2022/10/23 02:41:07;;;;;;;4.60;2.57;;;13.20;99.90;;;;;;5053253;28;20414;-69
2022/10/23 02:43:40;;;;;;;8.93;2.80;;;13.20;99.90;;;;;;5053392;28;20486;-69
2022/10/23 02:46:33;;;;;;;6.80;2.87;;;13.20;99.90;;;;;;5053364;28;20400;-69
2022/10/23 02:49:08;;;;;;;4.60;2.87;;;13.20;99.90;;;;;;5053490;28;20407;-69
2022/10/23 02:52:07;;;;;;;3.33;2.43;;;13.20;99.90;;;;;;5053367;28;20381;-69
2022/10/23 02:55:01;;;;;;;3.00;2.13;;;13.20;99.90;;;;;;5053404;28;20382;-69
2022/10/23 02:57:33;;;;;;;5.13;3.30;;;13.30;99.90;;;;;;5052661;28;20895;-69
2022/10/23 03:00:05;;;;;;;6.77;2.60;;;13.40;99.90;;;;;;5053028;28;20394;-69
2022/10/23 03:02:34;;;;;;;3.20;2.00;;;13.40;99.90;;;;;;5052965;28;20400;-69
2022/10/23 03:05:01;;;;;;;3.90;2.30;;;13.30;99.90;;;;;;5053398;28;20469;-69
2022/10/23 03:07:27;;;;;;;5.33;2.70;;;13.40;99.90;;;;;;5053104;28;20428;-69
2022/10/23 03:09:53;;;;;;;3.43;2.13;;;13.40;99.90;;;;;;5052918;28;20400;-69
2022/10/23 03:12:18;;;;;;;4.20;2.40;;;13.40;99.90;;;;;;5051252;28;20211;-69
2022/10/23 03:14:44;;;;;;;5.20;2.13;;;13.40;99.90;;;;;;5052967;28;20168;-69
2022/10/23 03:17:09;;;;;;;2.70;1.90;;;13.40;99.90;;;;;;5052561;28;20296;-70
2022/10/23 03:19:35;;;;;;;6.30;2.60;;;13.40;99.90;;;;;;5052792;28;20215;-69
2022/10/23 03:22:00;;;;;;;2.43;2.07;;;13.40;99.90;;;;;;5052935;28;20239;-69
2022/10/23 03:24:26;;;;;;;7.93;3.07;;;13.50;99.90;;;;;;5052775;28;20737;-69
2022/10/23 03:26:51;;;;;;;6.57;2.57;;;13.40;99.90;;;;;;5052127;28;20212;-69
2022/10/23 03:29:17;;;;;;;2.40;2.20;;;13.40;99.90;;;;;;5053016;28;20172;-70
2022/10/23 03:31:43;;;;;;;4.37;2.73;;;13.50;99.90;;;;;;5052385;28;20162;-70
2022/10/23 03:34:10;;;;;;;4.50;2.53;;;13.40;99.90;;;;;;5052625;28;20172;-70
2022/10/23 03:36:36;;;;;;;6.40;2.80;;;13.40;99.90;;;;;;5052528;28;20241;-69
2022/10/23 03:39:03;;;;;;;5.97;2.37;;;13.40;99.90;;;;;;5052496;28;20409;-69
2022/10/23 03:41:29;;;;;;;4.30;1.93;;;13.40;99.90;;;;;;5051772;28;20980;-69
2022/10/23 03:43:54;;;;;;;6.30;2.50;;;13.40;99.90;;;;;;5051900;28;20445;-69
2022/10/23 03:46:20;;;;;;;4.83;2.53;;;13.40;99.90;;;;;;5052300;28;20201;-69
2022/10/23 03:48:45;;;;;;;5.07;2.57;;;13.30;99.90;;;;;;5052004;28;20165;-69
2022/10/23 03:51:11;;;;;;;6.37;2.80;;;13.40;99.90;;;;;;5051973;28;20196;-69
2022/10/23 03:53:36;;;;;;;5.07;2.37;;;13.40;99.90;;;;;;5051992;28;20166;-69
2022/10/23 03:56:02;;;;;;;5.43;2.53;;;13.40;99.90;;;;;;5051679;28;20220;-70
2022/10/23 03:58:28;;;;;;;3.57;2.53;;;13.40;99.90;;;;;;5051727;28;20196;-69
2022/10/23 04:00:54;;;;;;;3.70;3.40;;;13.40;99.90;;;;;;5052110;28;20405;-69
2022/10/23 04:03:19;;;;;;;6.87;4.53;;;13.40;99.90;;;;;;5052383;28;20177;-69
2022/10/23 04:05:45;;;;;;;7.50;5.77;;;13.40;99.90;;;;;;5033752;28;20258;-69
2022/10/23 04:08:11;;;;;;;6.97;6.13;;;13.40;99.90;;;;;;5051759;28;20200;-69
2022/10/23 04:10:36;;;;;;;8.60;6.50;;;13.40;99.90;;;;;;5051848;28;20408;-68
2022/10/23 04:13:02;;;;;;;10.00;7.93;;;13.40;99.90;;;;;;5049970;28;20174;-69
2022/10/23 04:15:27;;;;;;;8.03;6.27;;;13.50;99.90;;;;;;5050407;28;20184;-69
2022/10/23 04:17:53;;;;;;;7.70;6.73;;;13.50;99.90;;;;;;5034055;28;20713;-68
2022/10/23 04:20:19;;;;;;;24.27;20.67;;;13.50;99.90;;;;;;5031706;28;20677;-68
2022/10/23 04:22:44;;;;;;;20.40;16.00;;;13.50;99.90;;;;;;5048083;28;20604;-69
2022/10/23 04:25:10;;;;;;;16.03;12.13;;;13.50;99.90;;;;;;5051214;28;20202;-68
2022/10/23 04:27:35;;;;;;;15.60;11.10;;;13.40;99.90;;;;;;5051114;28;20210;-68
2022/10/23 04:30:02;;;;;;;14.03;10.97;;;13.40;99.90;;;;;;5051933;28;20184;-68
2022/10/23 04:32:28;;;;;;;19.50;12.33;;;13.40;99.90;;;;;;5051911;28;20256;-68
2022/10/23 04:34:53;;;;;;;12.43;10.97;;;13.50;99.90;;;;;;5034752;28;20500;-69
2022/10/23 04:37:19;;;;;;;9.40;8.40;;;13.50;99.90;;;;;;5031384;28;20248;-69
2022/10/23 04:39:44;;;;;;;8.47;7.20;;;13.50;99.90;;;;;;5031328;28;20239;-69
2022/10/23 04:42:10;;;;;;;12.43;6.20;;;13.60;99.90;;;;;;5038447;28;20323;-69
2022/10/23 04:44:35;;;;;;;6.90;4.73;;;13.60;99.90;;;;;;5051644;28;20246;-68
2022/10/23 04:47:01;;;;;;;4.50;4.10;;;13.60;99.90;;;;;;5051226;28;20181;-69
2022/10/23 04:49:26;;;;;;;11.00;9.20;;;13.60;99.90;;;;;;5051366;28;20167;-69
2022/10/23 04:51:52;;;;;;;5.80;5.20;;;13.60;99.90;;;;;;5051484;28;20230;-69
2022/10/23 04:54:17;;;;;;;5.57;4.37;;;13.60;99.90;;;;;;5055353;28;20173;-69
2022/10/23 04:56:43;;;;;;;11.13;5.80;;;13.60;99.90;;;;;;5055382;28;20249;-69
2022/10/23 04:59:09;;;;;;;8.30;5.07;;;13.60;99.90;;;;;;5054989;28;20182;-69
2022/10/23 05:01:34;;;;;;;7.43;6.73;;;13.60;99.90;;;;;;5055400;28;20254;-69
2022/10/23 05:04:00;;;;;;;11.33;7.73;;;13.70;99.90;;;;;;5055373;28;20548;-69
2022/10/23 05:06:26;;;;;;;8.23;7.00;;;13.70;99.90;;;;;;5055235;28;20194;-69
2022/10/23 05:08:51;;;;;;;12.60;5.60;;;13.70;99.90;;;;;;5055126;28;20543;-69
2022/10/23 05:11:17;;;;;;;5.17;4.10;;;13.60;99.90;;;;;;5054507;28;20208;-70
2022/10/23 05:13:43;;;;;;;7.80;4.87;;;13.60;99.90;;;;;;5054386;28;20175;-69
2022/10/23 05:16:09;;;;;;;8.40;5.60;;;13.60;99.90;;;;;;5055132;28;20232;-69
2022/10/23 05:18:43;;;;;;;7.63;5.47;;;13.70;99.90;;;;;;5054856;28;20263;-68
2022/10/23 05:21:14;;;;;;;7.30;5.60;;;13.70;99.90;;;;;;5055097;28;20387;-69
2022/10/23 05:23:42;;;;;;;9.73;4.03;;;13.70;99.90;;;;;;5036978;28;20414;-68
2022/10/23 05:26:08;;;;;;;5.90;3.33;;;13.70;99.90;;;;;;5055021;28;20750;-69
2022/10/23 05:28:33;;;;;;;9.67;3.63;;;13.60;99.90;;;;;;5054400;28;20495;-69
2022/10/23 05:31:01;;;;;;;7.17;4.60;;;13.60;99.90;;;;;;5054756;28;20655;-69
2022/10/23 05:33:28;;;;;;;6.73;4.27;;;13.60;99.90;;;;;;5054791;28;20777;-68
2022/10/23 05:35:54;;;;;;;5.93;3.90;;;13.70;99.90;;;;;;5054776;28;20408;-69
2022/10/23 05:38:20;;;;;;;6.23;3.27;;;13.80;99.90;;;;;;5054587;28;20519;-69
2022/10/23 05:40:45;;;;;;;5.40;4.73;;;13.90;99.90;;;;;;5054821;28;20199;-69
2022/10/23 05:43:11;;;;;;;11.70;4.37;;;13.90;99.90;;;;;;5054338;28;20201;-69
2022/10/23 05:45:36;;;;;;;7.50;5.03;;;13.90;99.90;;;;;;5054728;28;20202;-69
2022/10/23 05:48:02;;;;;;;7.80;6.57;;;13.80;99.90;;;;;;5054702;28;20193;-69
2022/10/23 05:50:28;;;;;;;5.70;5.20;;;13.80;99.90;;;;;;5054986;28;20216;-69
2022/10/23 05:52:53;;;;;;;5.60;4.77;;;13.60;99.90;;;;;;5054688;28;20184;-68
2022/10/23 05:55:19;;;;;;;11.00;6.60;;;13.70;99.90;;;;;;5054897;28;20174;-69
2022/10/23 05:57:44;;;;;;;13.63;5.10;;;13.70;99.90;;;;;;5054115;28;20565;-69
2022/10/23 06:00:11;;;;;;;5.40;4.20;;;13.70;99.90;;;;;;5054695;28;20178;-68
2022/10/23 06:02:37;;;;;;;6.23;4.03;;;13.70;99.90;;;;;;5054769;28;20175;-69
2022/10/23 06:05:02;;;;;;;6.37;4.80;;;13.50;99.90;;;;;;5054215;28;20456;-69
2022/10/23 06:07:29;;;;;;;10.93;4.77;;;13.50;99.90;;;;;;5054383;28;20200;-69
2022/10/23 06:09:54;;;;;;;4.57;4.03;;;13.60;99.90;;;;;;5054323;28;20169;-69
2022/10/23 06:12:21;;;;;;;5.93;4.17;;;13.70;99.90;;;;;;5052767;28;20424;-69
2022/10/23 06:14:47;;;;;;;4.80;3.70;;;13.80;99.90;;;;;;5054514;28;20175;-69
2022/10/23 06:17:12;;;;;;;7.23;6.17;;;13.80;99.90;;;;;;5054372;28;20785;-69
2022/10/23 06:19:38;;;;;;;6.13;4.13;;;13.90;99.90;;;;;;5054231;28;20507;-69
2022/10/23 06:22:04;;;;;;;5.80;4.43;;;13.90;99.90;;;;;;5052325;28;20229;-70
2022/10/23 06:24:30;;;;;;;7.83;4.90;;;13.90;99.90;;;;;;5044582;28;20263;-70
2022/10/23 06:26:55;;;;;;;6.87;3.53;;;13.80;99.90;;;;;;5043940;28;20441;-70
2022/10/23 06:29:21;;;;;;;7.97;4.20;;;13.80;99.90;;;;;;5044376;28;20647;-70
2022/10/23 06:31:47;;;;;;;4.50;3.50;;;13.80;99.90;;;;;;5044582;28;20185;-70
2022/10/23 06:34:13;;;;;;;5.80;3.20;;;13.80;99.90;;;;;;5044725;28;20228;-70
2022/10/23 06:36:38;;;;;;;6.30;4.10;;;13.90;99.90;;;;;;5044264;28;20220;-69
2022/10/23 06:39:04;;;;;;;4.60;3.50;;;13.90;99.90;;;;;;5044848;28;20512;-71
2022/10/23 06:41:30;;;;;;;6.27;3.87;;;13.90;99.90;;;;;;5044633;28;20197;-69
2022/10/23 06:43:56;;;;;;;6.77;2.70;;;14.00;99.90;;;;;;5043928;28;21071;-69
2022/10/23 06:46:22;;;;;;;3.10;2.30;;;14.00;99.90;;;;;;5044578;28;20664;-69
2022/10/23 06:48:48;;;;;;;8.23;2.77;;;14.10;99.90;;;;;;5043871;28;20540;-69
2022/10/23 06:51:15;;;;;;;2.80;2.17;;;14.10;99.90;;;;;;5044319;28;20509;-69
2022/10/23 06:53:42;;;;;;;5.40;3.10;;;14.10;99.90;;;;;;5026369;28;20646;-69
2022/10/23 06:56:09;;;;;;;12.37;3.20;;;14.20;99.90;;;;;;5025879;28;20475;-70
2022/10/23 06:58:36;;;;;;;5.00;2.40;;;14.20;99.90;;;;;;5043533;28;20512;-69
2022/10/23 07:01:04;;;;;;;6.90;3.17;;;14.30;99.90;;;;;;5043877;28;20931;-70
2022/10/23 07:03:29;;;;;;;4.40;2.50;;;14.40;99.90;;;;;;5042231;28;20427;-69
2022/10/23 07:05:55;;;;;;;4.23;2.67;;;14.50;99.90;;;;;;5043418;28;20458;-69
2022/10/23 07:08:21;;;;;;;5.30;2.80;;;14.50;99.90;;;;;;5042505;28;20206;-69
2022/10/23 07:10:47;;;;;;;3.70;2.20;;;14.60;99.90;;;;;;5043387;28;20589;-69
2022/10/23 07:13:13;;;;;;;6.10;2.53;;;14.70;99.90;;;;;;5033125;28;20269;-69
2022/10/23 07:15:39;;;;;;;8.23;2.80;;;14.80;99.90;;;;;;5042676;28;20501;-69
2022/10/23 07:18:05;;;;;;;3.63;2.30;;;14.80;99.90;;;;;;5043250;28;20446;-69
2022/10/23 07:20:31;;;;;;;6.43;2.93;;;14.90;99.90;;;;;;5051497;28;20416;-69
2022/10/23 07:22:57;;;;;;;3.17;2.43;;;14.90;99.90;;;;;;5052867;28;20412;-68
2022/10/23 07:25:25;;;;;;;5.93;3.03;;;15.00;99.90;;;;;;5052590;28;20201;-68
2022/10/23 07:27:53;;;;;;;2.67;2.20;;;15.10;99.90;;;;;;5052318;28;20247;-69
2022/10/23 07:30:19;;;;;;;3.80;2.27;;;15.20;99.90;;;;;;5052986;28;20527;-69
2022/10/23 07:32:44;;;;;;;4.50;2.17;;;15.20;99.90;;;;;;5053172;28;20402;-69
2022/10/23 07:35:11;;;;;;;3.50;2.30;;;15.20;99.90;;;;;;5052871;28;20257;-69
2022/10/23 07:37:36;;;;;;;6.00;2.53;;;15.30;99.90;;;;;;5052934;28;20211;-69
2022/10/23 07:40:06;;;;;;;2.60;2.30;;;15.40;99.90;;;;;;5053589;28;20493;-69
2022/10/23 07:42:32;;;;;;;11.20;2.67;;;15.30;99.90;;;;;;5053261;28;20190;-70
2022/10/23 07:44:57;;;;;;;4.40;2.60;;;15.40;99.90;;;;;;5053264;28;20468;-69
2022/10/23 07:47:23;;;;;;;4.60;2.33;;;15.60;99.90;;;;;;5052008;28;20196;-69
2022/10/23 07:49:48;;;;;;;3.60;2.93;;;15.70;99.90;;;;;;5052439;28;20197;-69
2022/10/23 07:52:14;;;;;;;4.73;2.53;;;15.80;99.90;;;;;;5034214;28;20267;-70
2022/10/23 07:54:39;;;;;;;3.50;2.23;;;15.80;99.90;;;;;;5052369;28;20189;-69
2022/10/23 07:57:06;;;;;;;4.60;2.20;;;15.80;99.90;;;;;;5052210;28;20217;-69
2022/10/23 07:59:32;;;;;;;4.23;2.07;;;16.00;99.90;;;;;;5051942;28;20170;-69
2022/10/23 08:01:58;;;;;;;7.23;2.53;;;16.00;99.90;;;;;;5052167;28;20420;-69
2022/10/23 08:04:24;;;;;;;2.03;1.93;;;16.10;99.90;;;;;;5051682;28;20550;-69
2022/10/23 08:06:50;;;;;;;3.87;2.07;;;16.20;99.90;;;;;;5051597;28;20186;-69
2022/10/23 08:09:15;;;;;;;3.57;1.90;;;16.30;99.90;;;;;;5052127;28;20413;-69
2022/10/23 08:11:41;;;;;;;5.00;2.63;;;16.40;99.90;;;;;;5052744;28;20170;-69
2022/10/23 08:14:07;;;;;;;6.90;1.67;;;16.40;99.90;;;;;;5050534;28;20660;-69
2022/10/23 08:16:35;;;;;;;2.23;2.00;;;16.50;99.90;;;;;;5033823;28;20204;-69
2022/10/23 08:19:01;;;;;;;4.10;1.77;;;16.60;99.90;;;;;;5052153;28;20440;-68
2022/10/23 08:21:27;;;;;;;3.00;1.40;;;16.70;99.90;;;;;;5051679;28;20496;-69
2022/10/23 08:23:54;;;;;;;2.80;2.23;;;16.80;99.90;;;;;;5051785;28;20563;-68
2022/10/23 08:26:21;;;;;;;2.57;1.90;;;16.70;99.90;;;;;;5051958;28;20410;-70
2022/10/23 08:28:47;;;;;;;3.17;2.00;;;16.70;99.90;;;;;;5051219;28;20895;-69
2022/10/23 08:31:15;;;;;;;3.53;2.30;;;17.00;99.90;;;;;;5051153;28;20393;-69
2022/10/23 08:33:41;;;;;;;3.83;2.40;;;17.20;99.90;;;;;;5051459;28;20668;-69
2022/10/23 08:36:19;;;;;;;3.13;2.80;;;17.30;99.90;;;;;;5051525;28;20402;-69
2022/10/23 08:38:45;;;;;;;3.40;2.40;;;17.30;99.90;;;;;;5051788;28;20392;-69
2022/10/23 08:41:18;;;;;;;3.57;2.50;;;17.40;99.90;;;;;;5051458;28;20429;-69
2022/10/23 08:43:49;;;;;;;2.07;1.87;;;17.60;99.90;;;;;;5050867;28;20508;-69
2022/10/23 08:46:17;;;;;;;2.60;1.90;;;17.60;99.90;;;;;;5051573;28;20472;-69
2022/10/23 08:48:50;;;;;;;3.80;2.87;;;17.60;99.90;;;;;;5051437;28;20907;-69
2022/10/23 08:51:31;;;;;;;3.83;2.90;;;17.40;99.90;;;;;;5051258;28;20382;-69
2022/10/23 08:54:18;;;;;;;4.20;3.10;;;17.30;99.90;;;;;;5051538;28;20442;-69
2022/10/23 08:56:53;;;;;;;4.20;2.27;;;17.40;99.90;;;;;;5051321;28;20479;-69
2022/10/23 08:59:27;;;;;;;3.00;2.07;;;17.40;99.90;;;;;;5033726;28;20403;-69
2022/10/23 09:02:14;;;;;;;3.43;2.03;;;17.40;99.90;;;;;;5051314;28;20903;-69
2022/10/23 09:04:41;;;;;;;3.53;1.97;;;17.40;99.90;;;;;;5031310;28;20465;-69
2022/10/23 09:07:25;;;;;;;2.60;1.73;;;17.40;99.90;;;;;;5031274;28;20508;-69
2022/10/23 09:10:02;;;;;;;3.70;2.37;;;17.50;99.90;;;;;;5031652;28;20769;-69
2022/10/23 09:12:29;;;;;;;4.57;3.37;;;17.60;99.90;;;;;;5032927;28;20480;-70
2022/10/23 09:15:13;;;;;;;4.30;3.30;;;17.60;99.90;;;;;;5051067;28;20419;-70
2022/10/23 09:17:42;;;;;;;4.87;3.80;;;17.40;99.90;;;;;;5051053;28;20456;-70
2022/10/23 09:20:18;;;;;;;4.53;3.40;;;17.30;99.90;;;;;;5051400;28;20390;-70
2022/10/23 09:22:45;;;;;;;3.33;3.03;;;17.30;99.90;;;;;;5051113;28;20377;-70
2022/10/23 09:25:17;;;;;;;4.00;3.30;;;17.20;99.90;;;;;;5051198;28;20440;-70
2022/10/23 09:27:52;;;;;;;3.90;2.90;;;17.30;99.90;;;;;;5050623;28;20421;-70
2022/10/23 09:30:44;;;;;;;4.60;2.60;;;17.60;99.90;;;;;;5050943;28;20397;-70
2022/10/23 09:33:22;;;;;;;5.87;3.10;;;18.10;99.90;;;;;;5048374;28;20432;-70
2022/10/23 09:36:02;;;;;;;4.33;3.40;;;18.40;99.90;;;;;;5051348;28;20902;-70
2022/10/23 09:38:32;;;;;;;3.40;2.37;;;18.50;99.90;;;;;;5051545;28;20420;-69
2022/10/23 09:41:12;;;;;;;3.23;2.60;;;18.40;99.90;;;;;;5054657;28;20891;-70
2022/10/23 09:43:38;;;;;;;4.23;2.43;;;18.30;99.90;;;;;;5054037;28;20417;-70
2022/10/23 09:46:05;;;;;;;6.57;2.97;;;18.40;99.90;;;;;;5054882;28;20459;-70
2022/10/23 09:48:31;;;;;;;4.27;2.80;;;18.50;99.90;;;;;;5054737;28;20202;-69
2022/10/23 09:51:00;;;;;;;4.23;2.77;;;18.80;99.90;;;;;;5054523;28;20401;-69
2022/10/23 09:53:31;;;;;;;3.60;2.40;;;18.80;99.90;;;;;;5054776;28;20415;-69
2022/10/23 09:56:00;;;;;;;3.50;2.57;;;18.70;99.90;;;;;;5054632;28;20442;-70
2022/10/23 09:58:35;;;;;;;2.73;2.50;;;18.80;99.90;;;;;;5054086;28;20400;-69
2022/10/23 10:01:02;;;;;;;2.83;1.93;;;18.90;99.90;;;;;;5053340;28;20417;-70
2022/10/23 10:03:28;;;;;;;3.50;2.03;;;19.10;99.90;;;;;;5037081;28;20420;-70
2022/10/23 10:05:57;;;;;;;3.03;1.97;;;19.50;99.90;;;;;;5034224;28;20442;-70
2022/10/23 10:08:29;;;;;;;2.43;2.00;;;19.90;99.90;;;;;;5051553;28;20202;-70
2022/10/23 10:11:03;;;;;;;3.07;1.70;;;20.30;99.90;;;;;;5054407;28;20397;-70
2022/10/23 10:13:32;;;;;;;3.43;2.37;;;20.70;99.90;;;;;;5053427;28;20430;-70
2022/10/23 10:16:05;;;;;;;1.87;1.70;;;20.70;99.90;;;;;;5054707;28;20424;-70
2022/10/23 10:18:55;;;;;;;5.03;1.97;;;20.60;99.90;;;;;;5054710;28;20425;-70
2022/10/23 10:21:28;;;;;;;6.67;2.40;;;20.90;99.90;;;;;;5054415;28;20393;-70
2022/10/23 10:24:17;;;;;;;4.57;2.80;;;21.30;99.90;;;;;;5054576;28;20431;-70
2022/10/23 10:27:01;;;;;;;3.93;2.60;;;21.40;99.90;;;;;;5054466;28;20421;-70
2022/10/23 10:29:51;;;;;;;5.60;3.07;;;21.20;99.90;;;;;;5053836;28;20415;-70
2022/10/23 10:32:40;;;;;;;3.03;2.70;;;21.00;99.90;;;;;;5052914;28;20551;-70
2022/10/23 10:35:09;;;;;;;3.93;2.40;;;20.60;99.90;;;;;;5054058;28;20385;-70
2022/10/23 10:37:46;;;;;;;3.17;2.37;;;21.10;99.90;;;;;;5053873;28;20456;-70
2022/10/23 10:40:30;;;;;;;5.10;2.40;;;21.40;99.90;;;;;;5054060;28;20413;-70
2022/10/23 10:43:05;;;;;;;3.53;3.10;;;21.40;99.90;;;;;;5053687;28;20409;-70
2022/10/23 10:45:37;;;;;;;2.33;1.90;;;21.80;99.90;;;;;;5053897;28;20424;-70
2022/10/23 10:48:10;;;;;;;6.53;2.50;;;22.10;99.90;;;;;;5053483;28;20451;-70
2022/10/23 10:50:58;;;;;;;4.90;1.87;;;22.10;99.90;;;;;;5052793;28;20447;-70
2022/10/23 10:53:50;;;;;;;3.47;2.10;;;22.80;99.90;;;;;;5053784;28;20438;-70
2022/10/23 10:56:21;;;;;;;3.10;2.23;;;23.40;99.90;;;;;;5053152;28;20405;-70
2022/10/23 10:58:51;;;;;;;1.97;1.37;;;23.80;99.90;;;;;;5052957;28;20416;-70
2022/10/23 11:01:31;;;;;;;1.30;1.10;;;23.80;99.90;;;;;;5053182;28;20386;-70
2022/10/23 11:04:16;;;;;;;1.40;1.30;;;23.50;99.90;;;;;;5053326;28;20392;-70
2022/10/23 11:06:47;;;;;;;1.80;1.10;;;23.10;99.90;;;;;;5052981;28;20997;-70
2022/10/23 11:09:29;;;;;;;3.60;1.93;;;23.30;99.90;;;;;;5053066;28;20500;-70
2022/10/23 11:11:55;;;;;;;6.57;2.13;;;23.80;99.90;;;;;;5053076;28;20412;-70
2022/10/23 11:14:23;;;;;;;3.47;1.30;;;24.00;99.90;;;;;;5050667;28;20889;-70
2022/10/23 11:17:10;;;;;;;1.60;1.17;;;24.30;99.90;;;;;;5053110;28;20440;-70
2022/10/23 11:19:53;;;;;;;2.30;1.10;;;24.50;99.90;;;;;;5021526;28;20417;-70
2022/10/23 11:22:49;;;;;;;4.00;1.10;;;23.90;99.90;;;;;;5052823;28;20571;-69
2022/10/23 11:25:43;;;;;;;1.67;1.00;;;23.90;99.90;;;;;;5052816;28;20486;-69
2022/10/23 11:28:33;;;;;;;1.27;1.10;;;24.00;99.90;;;;;;5052437;28;20427;-70
2022/10/23 11:31:27;;;;;;;1.47;1.00;;;23.90;99.90;;;;;;5052487;28;20390;-69
2022/10/23 11:34:11;;;;;;;2.10;1.30;;;23.70;99.90;;;;;;5052626;28;20485;-69
2022/10/23 11:36:45;;;;;;;3.40;1.80;;;23.50;99.90;;;;;;5052261;28;20490;-69
2022/10/23 11:39:26;;;;;;;3.20;2.63;;;23.30;99.90;;;;;;5052545;28;20397;-70
2022/10/23 11:42:10;;;;;;;5.37;2.50;;;22.90;99.90;;;;;;5052465;28;20408;-69
2022/10/23 11:44:48;;;;;;;4.37;2.10;;;23.00;99.90;;;;;;5051660;28;20461;-69
2022/10/23 11:47:34;;;;;;;3.03;2.00;;;23.10;99.90;;;;;;5052460;28;20425;-69
2022/10/23 11:50:05;;;;;;;3.10;1.80;;;23.30;99.90;;;;;;5052468;28;20370;-69
2022/10/23 11:52:33;;;;;;;3.07;2.77;;;23.40;99.90;;;;;;5052311;28;20919;-71
2022/10/23 11:55:16;;;;;;;4.47;2.57;;;23.40;99.90;;;;;;5052006;28;20447;-69
2022/10/23 11:57:43;;;;;;;4.13;2.40;;;23.50;99.90;;;;;;5032478;28;20429;-69
2022/10/23 12:00:22;;;;;;;3.60;3.17;;;23.80;99.90;;;;;;5031682;28;20433;-69
2022/10/23 12:02:53;;;;;;;3.90;2.67;;;24.20;99.90;;;;;;5032139;28;20408;-69
2022/10/23 12:05:36;;;;;;;4.80;2.30;;;24.30;99.90;;;;;;5031831;28;20446;-69
2022/10/23 12:08:04;;;;;;;3.20;2.00;;;24.10;99.90;;;;;;5032126;28;20473;-70
2022/10/23 12:10:45;;;;;;;2.73;2.00;;;24.00;99.90;;;;;;5031923;28;20501;-69
2022/10/23 12:13:46;;;;;;;2.90;2.53;;;24.60;99.90;;;;;;5034477;28;20405;-70
2022/10/23 12:16:12;;;;;;;4.73;2.30;;;24.70;99.90;;;;;;4990802;28;20450;-69
2022/10/23 12:18:52;;;;;;;3.93;2.23;;;24.90;99.90;;;;;;5039195;28;21057;-69
2022/10/23 12:21:21;;;;;;;3.80;2.10;;;25.00;99.90;;;;;;5051808;28;20409;-70
2022/10/23 12:23:59;;;;;;;4.20;2.33;;;25.20;99.90;;;;;;5052099;28;20432;-69
2022/10/23 12:26:44;;;;;;;3.50;2.40;;;24.50;99.90;;;;;;5051810;28;20931;-69
2022/10/23 12:29:28;;;;;;;3.40;2.40;;;24.50;99.90;;;;;;5051446;28;20386;-69
2022/10/23 12:32:20;;;;;;;2.93;2.07;;;24.50;99.90;;;;;;5051898;28;20393;-69
2022/10/23 12:35:04;;;;;;;4.00;2.77;;;24.90;99.90;;;;;;5052010;28;20394;-69
2022/10/23 12:37:48;;;;;;;2.90;2.30;;;25.20;99.90;;;;;;5051229;28;20433;-69
2022/10/23 12:40:13;;;;;;;3.00;2.20;;;25.60;99.90;;;;;;5031523;28;20386;-69
2022/10/23 12:42:40;;;;;;;3.80;2.10;;;26.00;99.90;;;;;;5032045;28;20460;-69
2022/10/23 12:45:23;;;;;;;3.53;2.90;;;26.30;99.90;;;;;;5046999;28;20302;-70
2022/10/23 12:47:50;;;;;;;4.10;2.47;;;26.60;99.90;;;;;;5033535;28;20548;-69
2022/10/23 12:50:25;;;;;;;3.70;2.90;;;25.50;99.90;;;;;;5051946;28;20405;-69
2022/10/23 12:52:53;;;;;;;2.80;2.50;;;25.10;99.90;;;;;;5051686;28;20887;-70
2022/10/23 12:55:19;;;;;;;2.97;2.57;;;26.10;99.90;;;;;;5043984;28;20933;-71
2022/10/23 12:57:45;;;;;;;3.50;3.20;;;28.00;99.90;;;;;;5044537;28;20445;-70
2022/10/23 13:00:16;;;;;;;2.43;2.23;;;29.70;97.50;;;;;;5050980;28;20406;-70
2022/10/23 13:02:42;;;;;;;3.20;1.90;;;31.00;94.20;;;;;;5051726;28;20179;-70
2022/10/23 13:05:13;;;;;;;2.37;2.07;;;31.70;93.30;;;;;;5049371;28;20463;-71